createdAt,value
2022-11-24T00:01:24.551Z,94625.00
2022-11-24T00:03:57.525Z,94571.00
2022-11-24T00:06:26.517Z,94667.00
2022-11-24T00:08:55.766Z,94849.00
2022-11-24T00:11:26.512Z,94536.00
2022-11-24T00:13:55.529Z,94575.00
2022-11-24T00:16:27.764Z,94490.00
2022-11-24T00:18:59.024Z,94568.00
2022-11-24T00:21:29.399Z,94567.00
2022-11-24T00:23:57.765Z,94592.00
2022-11-24T00:26:28.712Z,94589.00
2022-11-24T00:29:00.482Z,94604.00
2022-11-24T00:31:32.687Z,94656.00
2022-11-24T00:34:03.390Z,94754.00
2022-11-24T00:36:35.255Z,94829.00
2022-11-24T00:39:06.246Z,94704.00
2022-11-24T00:41:35.063Z,94642.00
2022-11-24T00:44:03.571Z,94637.00
2022-11-24T00:46:33.030Z,94609.00
2022-11-24T00:49:01.703Z,94866.00
2022-11-24T00:51:31.765Z,94586.00
2022-11-24T00:54:01.176Z,94585.00
2022-11-24T00:56:31.076Z,94523.00
2022-11-24T00:58:59.423Z,94657.00
2022-11-24T01:01:30.983Z,94665.00
2022-11-24T01:04:02.408Z,94668.00
2022-11-24T01:06:32.423Z,94724.00
2022-11-24T01:09:00.663Z,95037.00
2022-11-24T01:11:53.094Z,94747.00
2022-11-24T01:14:24.224Z,95002.00
2022-11-24T01:16:52.779Z,94681.00
2022-11-24T01:19:22.661Z,94610.00
2022-11-24T01:21:50.947Z,94618.00
2022-11-24T01:24:19.273Z,95750.00
2022-11-24T01:26:47.417Z,95685.00
2022-11-24T01:29:15.589Z,94731.00
2022-11-24T01:31:43.663Z,94561.00
2022-11-24T01:34:12.960Z,94433.00
2022-11-24T01:36:42.660Z,94422.00
2022-11-24T01:39:10.727Z,94365.00
2022-11-24T01:41:38.835Z,94387.00
2022-11-24T01:44:24.426Z,94485.00
2022-11-24T01:46:58.537Z,94502.00
2022-11-24T01:49:38.943Z,94663.00
2022-11-24T01:52:14.024Z,94536.00
2022-11-24T01:54:49.639Z,94665.00
2022-11-24T01:57:24.632Z,94633.00
2022-11-24T01:59:58.486Z,94495.00
2022-11-24T02:02:30.418Z,94537.00
2022-11-24T02:05:04.199Z,94538.00
2022-11-24T02:07:35.736Z,94576.00
2022-11-24T02:10:09.658Z,94756.00
2022-11-24T02:12:40.288Z,94822.00
2022-11-24T02:15:11.855Z,94711.00
2022-11-24T02:17:40.005Z,94729.00
2022-11-24T02:20:11.296Z,94722.00
2022-11-24T02:22:51.719Z,94661.00
2022-11-24T02:25:32.306Z,94720.00
2022-11-24T02:28:07.603Z,94679.00
2022-11-24T02:30:36.815Z,94554.00
2022-11-24T02:33:05.045Z,94531.00
2022-11-24T02:35:33.713Z,94579.00
2022-11-24T02:38:01.783Z,94628.00
2022-11-24T02:40:31.075Z,94669.00
2022-11-24T02:43:08.589Z,94622.00
2022-11-24T02:45:36.736Z,94659.00
2022-11-24T02:48:05.086Z,94631.00
2022-11-24T02:50:33.440Z,94764.00
2022-11-24T02:53:01.492Z,94745.00
2022-11-24T02:55:29.582Z,94722.00
2022-11-24T02:57:57.617Z,94620.00
2022-11-24T03:00:27.138Z,94596.00
2022-11-24T03:02:55.294Z,94587.00
2022-11-24T03:05:23.421Z,94653.00
2022-11-24T03:07:51.559Z,94821.00
2022-11-24T03:10:19.806Z,94817.00
2022-11-24T03:12:47.873Z,95720.00
2022-11-24T03:15:16.082Z,94662.00
2022-11-24T03:17:45.485Z,94699.00
2022-11-24T03:20:14.030Z,94728.00
2022-11-24T03:22:42.551Z,94732.00
2022-11-24T03:25:11.149Z,94761.00
2022-11-24T03:27:39.212Z,94785.00
2022-11-24T03:30:09.249Z,94698.00
2022-11-24T03:32:37.462Z,94735.00
2022-11-24T03:35:07.971Z,94762.00
2022-11-24T03:37:36.358Z,94741.00
2022-11-24T03:40:05.407Z,94730.00
2022-11-24T03:42:33.542Z,94731.00
2022-11-24T03:45:16.662Z,94995.00
2022-11-24T03:47:51.947Z,94730.00
2022-11-24T03:50:21.344Z,94768.00
2022-11-24T03:52:49.410Z,94807.00
2022-11-24T03:55:17.633Z,94785.00
2022-11-24T03:57:45.711Z,94767.00
2022-11-24T04:00:14.756Z,95772.00
2022-11-24T04:02:42.910Z,95806.00
2022-11-24T04:05:11.298Z,95743.00
2022-11-24T04:07:40.886Z,95758.00
2022-11-24T04:10:09.684Z,95757.00
2022-11-24T04:12:45.563Z,95785.00
2022-11-24T04:15:17.301Z,95863.00
2022-11-24T04:17:45.996Z,95819.00
2022-11-24T04:20:14.980Z,95833.00
2022-11-24T04:22:44.734Z,95775.00
2022-11-24T04:25:13.418Z,95786.00
2022-11-24T04:27:41.465Z,95814.00
2022-11-24T04:30:11.059Z,95808.00
2022-11-24T04:32:39.110Z,95872.00
2022-11-24T04:35:08.359Z,94465.00
2022-11-24T04:37:36.520Z,94506.00
2022-11-24T04:40:10.517Z,94471.00
2022-11-24T04:42:39.383Z,94498.00
2022-11-24T04:45:09.113Z,94498.00
2022-11-24T04:47:37.299Z,94527.00
2022-11-24T04:50:07.641Z,94547.00
2022-11-24T04:52:35.826Z,94491.00
2022-11-24T04:55:03.997Z,94571.00
2022-11-24T04:57:33.383Z,94621.00
2022-11-24T05:00:01.518Z,94764.00
2022-11-24T05:02:29.587Z,94838.00
2022-11-24T05:04:57.637Z,94795.00
2022-11-24T05:07:25.692Z,94502.00
2022-11-24T05:10:11.489Z,94746.00
2022-11-24T05:12:40.912Z,94798.00
2022-11-24T05:15:10.823Z,94818.00
2022-11-24T05:17:40.475Z,94716.00
2022-11-24T05:20:09.678Z,94790.00
2022-11-24T05:22:37.719Z,94858.00
2022-11-24T05:25:06.570Z,94876.00
2022-11-24T05:27:34.598Z,94804.00
2022-11-24T05:30:04.607Z,94795.00
2022-11-24T05:32:32.720Z,94958.00
2022-11-24T05:35:02.202Z,94903.00
2022-11-24T05:37:30.865Z,94814.00
2022-11-24T05:39:59.197Z,94829.00
2022-11-24T05:42:47.281Z,94810.00
2022-11-24T05:45:20.686Z,94787.00
2022-11-24T05:47:50.202Z,94833.00
2022-11-24T05:50:20.930Z,94854.00
2022-11-24T05:52:49.231Z,94850.00
2022-11-24T05:55:19.494Z,94856.00
2022-11-24T05:57:47.830Z,94653.00
2022-11-24T06:00:20.161Z,94606.00
2022-11-24T06:02:48.969Z,94619.00
2022-11-24T06:05:17.712Z,94610.00
2022-11-24T06:07:45.975Z,94665.00
2022-11-24T06:10:14.857Z,94629.00
2022-11-24T06:12:42.998Z,94624.00
2022-11-24T06:15:12.394Z,94571.00
2022-11-24T06:17:41.961Z,94551.00
2022-11-24T06:20:12.055Z,94552.00
2022-11-24T06:22:40.240Z,94548.00
2022-11-24T06:25:09.382Z,94567.00
2022-11-24T06:27:37.489Z,94590.00
2022-11-24T06:30:06.989Z,94614.00
2022-11-24T06:32:35.122Z,94633.00
2022-11-24T06:35:05.188Z,94645.00
2022-11-24T06:37:33.253Z,94656.00
2022-11-24T06:40:01.308Z,94660.00
2022-11-24T06:42:29.355Z,94651.00
2022-11-24T06:44:57.438Z,94661.00
2022-11-24T06:47:25.498Z,94690.00
2022-11-24T06:49:53.632Z,94673.00
2022-11-24T06:52:23.026Z,94664.00
2022-11-24T06:54:51.077Z,94664.00
2022-11-24T06:57:19.131Z,94642.00
2022-11-24T06:59:47.192Z,94642.00
2022-11-24T07:02:15.254Z,94641.00
2022-11-24T07:04:43.464Z,94640.00
2022-11-24T07:07:11.637Z,94645.00
2022-11-24T07:09:41.083Z,94618.00
2022-11-24T07:12:09.223Z,94639.00
2022-11-24T07:14:37.527Z,94625.00
2022-11-24T07:17:05.863Z,94649.00
2022-11-24T07:19:34.091Z,94669.00
2022-11-24T07:22:02.445Z,94696.00
2022-11-24T07:24:30.486Z,94721.00
2022-11-24T07:26:59.911Z,94669.00
2022-11-24T07:29:27.970Z,94730.00
2022-11-24T07:31:58.561Z,94733.00
2022-11-24T07:34:30.240Z,94719.00
2022-11-24T07:36:58.340Z,94741.00
2022-11-24T07:39:26.397Z,94721.00
2022-11-24T07:41:54.465Z,94682.00
2022-11-24T07:44:23.875Z,94727.00
2022-11-24T07:46:52.004Z,94678.00
2022-11-24T07:49:20.413Z,94734.00
2022-11-24T07:51:48.556Z,94730.00
2022-11-24T07:54:16.687Z,94706.00
2022-11-24T07:56:44.777Z,94711.00
2022-11-24T07:59:12.839Z,94715.00
2022-11-24T08:01:42.555Z,94705.00
2022-11-24T08:04:10.805Z,94747.00
2022-11-24T08:06:43.284Z,94733.00
2022-11-24T08:09:15.136Z,94764.00
2022-11-24T08:11:43.211Z,94840.00
2022-11-24T08:14:11.262Z,94779.00
2022-11-24T08:16:39.825Z,94800.00
2022-11-24T08:19:10.892Z,94790.00
2022-11-24T08:21:38.998Z,94769.00
2022-11-24T08:24:09.096Z,94785.00
2022-11-24T08:26:37.222Z,94811.00
2022-11-24T08:29:05.292Z,94791.00
2022-11-24T08:31:34.874Z,94829.00
2022-11-24T08:34:05.056Z,94829.00
2022-11-24T08:36:35.762Z,94887.00
2022-11-24T08:39:04.470Z,96293.00
2022-11-24T08:41:33.899Z,96262.00
2022-11-24T08:44:01.955Z,95130.00
2022-11-24T08:46:30.212Z,95307.00
2022-11-24T08:48:58.698Z,95330.00
2022-11-24T08:51:28.216Z,95356.00
2022-11-24T08:54:00.782Z,95345.00
2022-11-24T08:56:32.250Z,95297.00
2022-11-24T08:59:03.928Z,95296.00
2022-11-24T09:01:35.510Z,95285.00
2022-11-24T09:04:03.783Z,95276.00
2022-11-24T09:06:31.904Z,95157.00
2022-11-24T09:09:01.431Z,95269.00
2022-11-24T09:11:30.707Z,95181.00
2022-11-24T09:13:58.966Z,95108.00
2022-11-24T09:16:29.869Z,95002.00
2022-11-24T09:18:59.778Z,95134.00
2022-11-24T09:21:28.691Z,95182.00
2022-11-24T09:23:58.070Z,95254.00
2022-11-24T09:26:30.965Z,95350.00
2022-11-24T09:29:00.859Z,95308.00
2022-11-24T09:31:33.544Z,95263.00
2022-11-24T09:34:05.233Z,95248.00
2022-11-24T09:36:33.339Z,95267.00
2022-11-24T09:39:01.846Z,95255.00
2022-11-24T09:42:02.678Z,95207.00
2022-11-24T09:45:49.022Z,95361.00
2022-11-24T09:48:23.696Z,95408.00
2022-11-24T09:50:54.049Z,95354.00
2022-11-24T09:53:32.339Z,95295.00
2022-11-24T09:56:13.098Z,95113.00
2022-11-24T09:58:48.615Z,95202.00
2022-11-24T10:01:19.528Z,95124.00
2022-11-24T10:03:51.770Z,95134.00
2022-11-24T10:06:26.372Z,95159.00
2022-11-24T10:09:46.387Z,95207.00
2022-11-24T10:12:31.430Z,95243.00
2022-11-24T10:15:27.996Z,95242.00
2022-11-24T10:18:41.349Z,95280.00
2022-11-24T10:21:29.729Z,95316.00
2022-11-24T10:24:29.106Z,95549.00
2022-11-24T10:27:03.833Z,95603.00
2022-11-24T10:29:39.930Z,95519.00
2022-11-24T10:32:20.078Z,95528.00
2022-11-24T10:34:50.556Z,95539.00
2022-11-24T10:37:27.891Z,95528.00
2022-11-24T10:40:06.684Z,95606.00
2022-11-24T10:42:37.716Z,95479.00
2022-11-24T10:45:14.983Z,95433.00
2022-11-24T10:47:46.458Z,95481.00
2022-11-24T10:50:21.958Z,95481.00
2022-11-24T10:53:01.631Z,95551.00
2022-11-24T10:56:05.122Z,95409.00
2022-11-24T10:58:38.426Z,95452.00
2022-11-24T11:01:28.098Z,95429.00
2022-11-24T11:04:01.533Z,95442.00
2022-11-24T11:06:31.829Z,95440.00
2022-11-24T11:09:20.082Z,95442.00
2022-11-24T11:11:49.821Z,95522.00
2022-11-24T11:14:32.881Z,95558.00
2022-11-24T11:17:00.996Z,95475.00
2022-11-24T11:19:57.011Z,95501.00
2022-11-24T11:22:29.034Z,95530.00
2022-11-24T11:25:18.063Z,95508.00
2022-11-24T11:27:46.881Z,95584.00
2022-11-24T11:36:16.858Z,95440.00
2022-11-24T11:38:46.798Z,95448.00
2022-11-24T11:41:25.111Z,95443.00
2022-11-24T11:44:07.939Z,95491.00
2022-11-24T11:46:36.051Z,95465.00
2022-11-24T11:49:04.462Z,95511.00
2022-11-24T11:52:04.220Z,95518.00
2022-11-24T11:55:01.111Z,95528.00
2022-11-24T11:57:45.554Z,95549.00
2022-11-24T12:00:17.134Z,95535.00
2022-11-24T12:03:20.477Z,95344.00
2022-11-24T12:06:05.599Z,95403.00
2022-11-24T12:09:18.708Z,95430.00
2022-11-24T12:11:50.430Z,95491.00
2022-11-24T12:14:33.515Z,95381.00
2022-11-24T12:17:13.316Z,95350.00
2022-11-24T12:20:18.315Z,95368.00
2022-11-24T12:22:58.824Z,95350.00
2022-11-24T12:25:35.450Z,95351.00
2022-11-24T12:28:27.418Z,95375.00
2022-11-24T12:31:07.016Z,95384.00
2022-11-24T12:34:28.695Z,95382.00
2022-11-24T12:37:28.206Z,95272.00
2022-11-24T12:40:06.584Z,95286.00
2022-11-24T12:42:51.447Z,95261.00
2022-11-24T12:45:34.270Z,95257.00
2022-11-24T12:48:26.913Z,95279.00
2022-11-24T12:50:57.124Z,95305.00
2022-11-24T12:53:29.567Z,95320.00
2022-11-24T12:56:06.600Z,95270.00
2022-11-24T12:58:50.087Z,95303.00
2022-11-24T13:01:31.719Z,95312.00
2022-11-24T13:04:15.225Z,95336.00
2022-11-24T13:06:53.850Z,95259.00
2022-11-24T13:09:22.137Z,95419.00
2022-11-24T13:11:52.036Z,95221.00
2022-11-24T13:14:24.450Z,95237.00
2022-11-24T13:17:29.344Z,95245.00
2022-11-24T13:19:47.231Z,95183.00
2022-11-24T13:22:19.344Z,95265.00
2022-11-24T13:25:18.193Z,95242.00
2022-11-24T13:27:49.346Z,95264.00
2022-11-24T13:31:10.736Z,95263.00
2022-11-24T13:33:42.971Z,95282.00
2022-11-24T13:36:34.108Z,95319.00
2022-11-24T13:39:05.408Z,95304.00
2022-11-24T13:42:41.688Z,95347.00
2022-11-24T13:45:03.131Z,95354.00
2022-11-24T13:47:42.835Z,95366.00
2022-11-24T13:50:23.438Z,95414.00
2022-11-24T13:53:01.232Z,95301.00
2022-11-24T13:55:38.677Z,95301.00
2022-11-24T13:58:38.128Z,95303.00
2022-11-24T14:01:17.591Z,95284.00
2022-11-24T14:07:02.526Z,95264.00
2022-11-24T14:09:41.689Z,95306.00
2022-11-24T14:12:15.659Z,95311.00
2022-11-24T14:14:46.113Z,95327.00
2022-11-24T14:17:22.771Z,95306.00
2022-11-24T14:19:54.735Z,95315.00
2022-11-24T14:22:26.759Z,95293.00
2022-11-24T14:24:58.162Z,95319.00
2022-11-24T14:27:36.152Z,95335.00
2022-11-24T14:30:21.091Z,95435.00
2022-11-24T14:32:56.913Z,95405.00
2022-11-24T14:35:29.949Z,95396.00
2022-11-24T14:37:58.485Z,95500.00
2022-11-24T14:40:42.075Z,95459.00
2022-11-24T14:43:23.937Z,95481.00
2022-11-24T14:45:56.326Z,95474.00
2022-11-24T14:48:29.591Z,95417.00
2022-11-24T14:51:15.524Z,95436.00
2022-11-24T14:53:45.976Z,95469.00
2022-11-24T14:56:26.302Z,95375.00
2022-11-24T14:58:55.465Z,95448.00
2022-11-24T15:01:32.685Z,95467.00
2022-11-24T15:07:24.323Z,95495.00
2022-11-24T15:09:57.718Z,95476.00
2022-11-24T15:12:30.753Z,95492.00
2022-11-24T15:15:03.805Z,95495.00
2022-11-24T15:17:32.481Z,95474.00
2022-11-24T15:20:10.529Z,95493.00
2022-11-24T15:22:44.517Z,95495.00
2022-11-24T15:25:31.498Z,95446.00
2022-11-24T15:27:59.867Z,95537.00
2022-11-24T15:30:29.287Z,95524.00
2022-11-24T15:32:59.403Z,95503.00
2022-11-24T15:35:31.678Z,95509.00
2022-11-24T15:38:01.248Z,95497.00
2022-11-24T15:40:29.334Z,95448.00
2022-11-24T15:43:02.074Z,95464.00
2022-11-24T15:45:35.785Z,95461.00
2022-11-24T15:48:03.826Z,95480.00
2022-11-24T15:50:31.937Z,95493.00
2022-11-24T15:53:01.341Z,95504.00
2022-11-24T15:55:29.461Z,95519.00
2022-11-24T15:57:57.526Z,95547.00
2022-11-24T16:00:25.799Z,95571.00
2022-11-24T16:02:53.908Z,95562.00
2022-11-24T16:05:21.970Z,95467.00
2022-11-24T16:07:50.114Z,95870.00
2022-11-24T16:10:26.873Z,95715.00
2022-11-24T16:12:54.976Z,95654.00
2022-11-24T16:15:23.032Z,95699.00
2022-11-24T16:17:51.173Z,95779.00
2022-11-24T16:20:19.889Z,95886.00
2022-11-24T16:22:48.176Z,95819.00
2022-11-24T16:25:16.828Z,95810.00
2022-11-24T16:27:46.363Z,95839.00
2022-11-24T16:30:15.350Z,95835.00
2022-11-24T16:32:43.472Z,95830.00
2022-11-24T16:35:11.610Z,95946.00
2022-11-24T16:37:39.857Z,96692.00
2022-11-24T16:40:09.482Z,95823.00
2022-11-24T16:42:37.620Z,95800.00
2022-11-24T16:45:08.736Z,95821.00
2022-11-24T16:47:41.603Z,95783.00
2022-11-24T16:50:11.743Z,95804.00
2022-11-24T16:52:40.223Z,95817.00
2022-11-24T16:55:09.620Z,95812.00
2022-11-24T16:57:37.975Z,95795.00
2022-11-24T17:00:09.800Z,95805.00
2022-11-24T17:02:38.038Z,95760.00
2022-11-24T17:05:07.259Z,95760.00
2022-11-24T17:07:35.377Z,95796.00
2022-11-24T17:10:03.506Z,95949.00
2022-11-24T17:12:31.611Z,95987.00
2022-11-24T17:15:30.417Z,96671.00
2022-11-24T17:18:16.270Z,96682.00
2022-11-24T17:20:37.244Z,96696.00
2022-11-24T17:23:05.315Z,96690.00
2022-11-24T17:25:33.860Z,96662.00
2022-11-24T17:28:01.913Z,96652.00
2022-11-24T17:30:30.005Z,96660.00
2022-11-24T17:32:59.608Z,96673.00
2022-11-24T17:35:27.718Z,96658.00
2022-11-24T17:37:57.041Z,96629.00
2022-11-24T17:40:29.329Z,96631.00
2022-11-24T17:43:00.152Z,96626.00
2022-11-24T17:45:30.403Z,96665.00
2022-11-24T17:48:00.496Z,96628.00
2022-11-24T17:50:28.634Z,96631.00
2022-11-24T17:52:56.761Z,96612.00
2022-11-24T17:55:24.873Z,96601.00
2022-11-24T17:57:52.975Z,96598.00
2022-11-24T18:00:21.599Z,96622.00
2022-11-24T18:02:49.730Z,96620.00
2022-11-24T18:05:19.267Z,96633.00
2022-11-24T18:07:47.384Z,96642.00
2022-11-24T18:10:15.676Z,96670.00
2022-11-24T18:12:43.715Z,96642.00
2022-11-24T18:15:12.305Z,96658.00
2022-11-24T18:17:40.396Z,96675.00
2022-11-24T18:20:09.947Z,96656.00
2022-11-24T18:25:27.748Z,96692.00
2022-11-24T18:27:55.838Z,96682.00
2022-11-24T18:30:23.923Z,96686.00
2022-11-24T18:32:51.967Z,96706.00
2022-11-24T18:35:20.041Z,96709.00
2022-11-24T18:37:49.473Z,96713.00
2022-11-24T18:40:17.653Z,96715.00
2022-11-24T18:42:45.711Z,96718.00
2022-11-24T18:45:13.755Z,96716.00
2022-11-24T18:47:41.811Z,96731.00
2022-11-24T18:50:10.792Z,96736.00
2022-11-24T18:52:38.857Z,96751.00
2022-11-24T18:55:09.349Z,96755.00
2022-11-24T18:57:37.565Z,95903.00
2022-11-24T19:00:07.371Z,95869.00
2022-11-24T19:02:35.542Z,95848.00
2022-11-24T19:05:03.883Z,95897.00
2022-11-24T19:07:32.042Z,95798.00
2022-11-24T19:10:00.146Z,95743.00
2022-11-24T19:12:29.572Z,95781.00
2022-11-24T19:14:57.631Z,95771.00
2022-11-24T19:17:25.675Z,95816.00
2022-11-24T19:19:53.839Z,95864.00
2022-11-24T19:22:22.212Z,96086.00
2022-11-24T19:24:50.773Z,95858.00
2022-11-24T19:27:20.989Z,95959.00
2022-11-24T19:29:50.438Z,95950.00
2022-11-24T19:32:19.472Z,95938.00
2022-11-24T19:34:47.552Z,95936.00
2022-11-24T19:37:16.094Z,95947.00
2022-11-24T19:39:44.180Z,95916.00
2022-11-24T19:42:12.240Z,95982.00
2022-11-24T19:44:40.404Z,95975.00
2022-11-24T19:47:09.818Z,95917.00
2022-11-24T19:49:37.918Z,95872.00
2022-11-24T19:52:06.214Z,95884.00
2022-11-24T19:54:35.608Z,95930.00
2022-11-24T19:57:04.294Z,95914.00
2022-11-24T19:59:32.358Z,95921.00
2022-11-24T20:02:02.408Z,95943.00
2022-11-24T20:04:33.280Z,95882.00
2022-11-24T20:07:01.594Z,95879.00
2022-11-24T20:09:29.677Z,95885.00
2022-11-24T20:11:58.663Z,95899.00
2022-11-24T20:14:26.739Z,95930.00
2022-11-24T20:16:54.960Z,95884.00
2022-11-24T20:19:23.070Z,95849.00
2022-11-24T20:21:54.242Z,95851.00
2022-11-24T20:24:24.698Z,95822.00
2022-11-24T20:26:58.166Z,95824.00
2022-11-24T20:29:28.277Z,95842.00
2022-11-24T20:31:57.652Z,95917.00
2022-11-24T20:34:28.367Z,95877.00
2022-11-24T20:36:57.836Z,95852.00
2022-11-24T20:39:28.519Z,95863.00
2022-11-24T20:41:57.606Z,95861.00
2022-11-24T20:44:27.667Z,95838.00
2022-11-24T20:46:59.668Z,95787.00
2022-11-24T20:49:29.066Z,95794.00
2022-11-24T20:51:58.557Z,95814.00
2022-11-24T20:54:26.997Z,95747.00
2022-11-24T20:56:55.257Z,95828.00
2022-11-24T20:59:25.921Z,95815.00
2022-11-24T21:01:56.133Z,95910.00
2022-11-24T21:04:27.611Z,95897.00
2022-11-24T21:06:55.768Z,95906.00
2022-11-24T21:09:27.148Z,96016.00
2022-11-24T21:11:55.635Z,95853.00
2022-11-24T21:14:24.378Z,95846.00
2022-11-24T21:16:52.748Z,95887.00
2022-11-24T21:19:21.189Z,95866.00
2022-11-24T21:21:49.428Z,95870.00
2022-11-24T21:24:21.407Z,95880.00
2022-11-24T21:26:52.933Z,95878.00
2022-11-24T21:29:23.517Z,95871.00
2022-11-24T21:31:52.291Z,96007.00
2022-11-24T21:34:20.650Z,95873.00
2022-11-24T21:36:49.251Z,96047.00
2022-11-24T21:39:18.511Z,95956.00
2022-11-24T21:41:46.676Z,95976.00
2022-11-24T21:44:16.731Z,95916.00
2022-11-24T21:46:49.633Z,96009.00
2022-11-24T21:49:20.676Z,96009.00
2022-11-24T21:51:55.007Z,95987.00
2022-11-24T21:54:23.456Z,95909.00
2022-11-24T21:56:51.535Z,95915.00
2022-11-24T21:59:22.623Z,95906.00
2022-11-24T22:01:50.691Z,95977.00
2022-11-24T22:04:18.856Z,95901.00
2022-11-24T22:06:46.942Z,95878.00
2022-11-24T22:09:18.269Z,95858.00
2022-11-24T22:11:49.045Z,95861.00
2022-11-24T22:14:17.220Z,95859.00
2022-11-24T22:16:47.043Z,95850.00
2022-11-24T22:19:15.260Z,95847.00
2022-11-24T22:21:43.327Z,95874.00
2022-11-24T22:24:11.809Z,95875.00
2022-11-24T22:26:39.975Z,95859.00
2022-11-24T22:29:08.374Z,95913.00
2022-11-24T22:31:36.556Z,95918.00
2022-11-24T22:34:06.132Z,95976.00
2022-11-24T22:36:36.539Z,95965.00
2022-11-24T22:39:07.151Z,95972.00
2022-11-24T22:41:36.814Z,96031.00
2022-11-24T22:44:05.768Z,95907.00
2022-11-24T22:46:34.270Z,95855.00
2022-11-24T22:49:02.839Z,95966.00
2022-11-24T22:51:35.331Z,95980.00
2022-11-24T22:54:05.668Z,96152.00
2022-11-24T22:56:34.537Z,96022.00
2022-11-24T22:59:07.009Z,95976.00
2022-11-24T23:01:35.478Z,95967.00
2022-11-24T23:04:04.256Z,95985.00
2022-11-24T23:06:34.406Z,95912.00
2022-11-24T23:09:04.455Z,95986.00
2022-11-24T23:11:38.295Z,96022.00
2022-11-24T23:14:08.696Z,96028.00
2022-11-24T23:16:36.911Z,95933.00
2022-11-24T23:19:05.618Z,95940.00
2022-11-24T23:21:38.948Z,95962.00
2022-11-24T23:24:08.925Z,95937.00
2022-11-24T23:26:39.872Z,95942.00
2022-11-24T23:29:09.139Z,95948.00
2022-11-24T23:31:39.780Z,95940.00
2022-11-24T23:34:08.250Z,95870.00
2022-11-24T23:36:37.698Z,95931.00
2022-11-24T23:39:07.975Z,95937.00
2022-11-24T23:41:36.330Z,95986.00
2022-11-24T23:44:04.651Z,95971.00
2022-11-24T23:46:33.013Z,95971.00
2022-11-24T23:49:01.225Z,95882.00
2022-11-24T23:51:31.861Z,95861.00
2022-11-24T23:54:01.981Z,95840.00
2022-11-24T23:56:33.511Z,95847.00
2022-11-24T23:59:03.171Z,95926.00
